sensor_id;sensor_type;location;lat;lon;timestamp;temperature;humidity
9943;DHT22;5010;45.080;7.634;2023-03-23T00:01:22;21.40;1.00
9943;DHT22;5010;45.080;7.634;2023-03-23T00:03:53;21.40;1.00
9943;DHT22;5010;45.080;7.634;2023-03-23T00:06:23;21.30;1.00
9943;DHT22;5010;45.080;7.634;2023-03-23T00:08:53;21.30;1.00
9943;DHT22;5010;45.080;7.634;2023-03-23T00:11:26;21.30;1.00
9943;DHT22;5010;45.080;7.634;2023-03-23T00:13:56;21.30;1.00
9943;DHT22;5010;45.080;7.634;2023-03-23T00:16:27;21.30;1.00
9943;DHT22;5010;45.080;7.634;2023-03-23T00:18:58;21.30;1.00
9943;DHT22;5010;45.080;7.634;2023-03-23T00:21:26;21.20;1.00
9943;DHT22;5010;45.080;7.634;2023-03-23T00:24:03;21.20;1.00
9943;DHT22;5010;45.080;7.634;2023-03-23T00:26:31;21.20;1.00
9943;DHT22;5010;45.080;7.634;2023-03-23T00:29:00;21.20;1.00
9943;DHT22;5010;45.080;7.634;2023-03-23T00:31:28;21.20;1.00
9943;DHT22;5010;45.080;7.634;2023-03-23T00:33:59;21.20;1.00
9943;DHT22;5010;45.080;7.634;2023-03-23T00:36:29;21.20;1.00
9943;DHT22;5010;45.080;7.634;2023-03-23T00:38:56;21.20;1.00
9943;DHT22;5010;45.080;7.634;2023-03-23T00:41:26;21.20;1.00
9943;DHT22;5010;45.080;7.634;2023-03-23T00:43:55;21.10;1.00
9943;DHT22;5010;45.080;7.634;2023-03-23T00:46:22;21.20;1.00
9943;DHT22;5010;45.080;7.634;2023-03-23T00:48:49;21.10;1.00
9943;DHT22;5010;45.080;7.634;2023-03-23T00:51:16;21.10;1.00
9943;DHT22;5010;45.080;7.634;2023-03-23T00:53:44;21.10;1.00
9943;DHT22;5010;45.080;7.634;2023-03-23T00:56:10;21.10;1.00
9943;DHT22;5010;45.080;7.634;2023-03-23T00:58:39;21.10;1.00
9943;DHT22;5010;45.080;7.634;2023-03-23T01:01:06;21.10;1.00
9943;DHT22;5010;45.080;7.634;2023-03-23T01:03:34;21.10;1.00
9943;DHT22;5010;45.080;7.634;2023-03-23T01:06:05;21.10;1.00
9943;DHT22;5010;45.080;7.634;2023-03-23T01:08:33;21.10;1.00
9943;DHT22;5010;45.080;7.634;2023-03-23T01:11:03;21.10;1.00
9943;DHT22;5010;45.080;7.634;2023-03-23T01:13:30;21.10;1.00
9943;DHT22;5010;45.080;7.634;2023-03-23T01:15:59;21.10;1.00
9943;DHT22;5010;45.080;7.634;2023-03-23T01:18:25;21.10;1.00
9943;DHT22;5010;45.080;7.634;2023-03-23T01:20:52;21.10;1.00
9943;DHT22;5010;45.080;7.634;2023-03-23T01:23:19;21.10;1.00
9943;DHT22;5010;45.080;7.634;2023-03-23T01:25:46;21.10;1.00
9943;DHT22;5010;45.080;7.634;2023-03-23T01:28:14;21.00;1.00
9943;DHT22;5010;45.080;7.634;2023-03-23T01:30:41;21.10;1.00
9943;DHT22;5010;45.080;7.634;2023-03-23T01:33:10;21.00;1.00
9943;DHT22;5010;45.080;7.634;2023-03-23T01:35:37;21.00;1.00
9943;DHT22;5010;45.080;7.634;2023-03-23T01:38:04;21.10;1.00
9943;DHT22;5010;45.080;7.634;2023-03-23T01:40:31;21.00;1.00
9943;DHT22;5010;45.080;7.634;2023-03-23T01:42:58;21.00;1.00
9943;DHT22;5010;45.080;7.634;2023-03-23T01:45:30;21.00;1.00
9943;DHT22;5010;45.080;7.634;2023-03-23T01:48:07;21.00;1.00
9943;DHT22;5010;45.080;7.634;2023-03-23T01:50:42;21.00;1.00
9943;DHT22;5010;45.080;7.634;2023-03-23T01:53:11;21.00;1.00
9943;DHT22;5010;45.080;7.634;2023-03-23T01:55:40;21.00;1.00
9943;DHT22;5010;45.080;7.634;2023-03-23T01:58:08;21.00;1.00
9943;DHT22;5010;45.080;7.634;2023-03-23T02:00:36;21.00;1.00
9943;DHT22;5010;45.080;7.634;2023-03-23T02:03:06;21.00;1.00
9943;DHT22;5010;45.080;7.634;2023-03-23T02:05:39;21.00;1.00
9943;DHT22;5010;45.080;7.634;2023-03-23T02:08:09;21.00;1.00
9943;DHT22;5010;45.080;7.634;2023-03-23T02:10:37;21.00;1.00
9943;DHT22;5010;45.080;7.634;2023-03-23T02:13:06;21.00;1.00
9943;DHT22;5010;45.080;7.634;2023-03-23T02:15:40;21.00;1.00
9943;DHT22;5010;45.080;7.634;2023-03-23T02:18:16;21.00;1.00
9943;DHT22;5010;45.080;7.634;2023-03-23T02:24:04;21.00;1.00
9943;DHT22;5010;45.080;7.634;2023-03-23T02:26:45;21.00;1.00
9943;DHT22;5010;45.080;7.634;2023-03-23T02:32:12;20.90;1.00
9943;DHT22;5010;45.080;7.634;2023-03-23T02:34:45;20.90;1.00
9943;DHT22;5010;45.080;7.634;2023-03-23T02:37:22;20.90;1.00
9943;DHT22;5010;45.080;7.634;2023-03-23T02:39:53;20.90;1.00
9943;DHT22;5010;45.080;7.634;2023-03-23T02:42:26;20.90;1.00
9943;DHT22;5010;45.080;7.634;2023-03-23T02:44:54;20.90;1.00
9943;DHT22;5010;45.080;7.634;2023-03-23T02:47:25;20.90;1.00
9943;DHT22;5010;45.080;7.634;2023-03-23T02:49:55;20.90;1.00
9943;DHT22;5010;45.080;7.634;2023-03-23T02:52:26;20.90;1.00
9943;DHT22;5010;45.080;7.634;2023-03-23T02:54:55;20.90;1.00
9943;DHT22;5010;45.080;7.634;2023-03-23T02:57:24;20.90;1.00
9943;DHT22;5010;45.080;7.634;2023-03-23T02:59:52;20.90;1.00
9943;DHT22;5010;45.080;7.634;2023-03-23T03:02:21;20.90;1.00
9943;DHT22;5010;45.080;7.634;2023-03-23T03:04:56;20.90;1.00
9943;DHT22;5010;45.080;7.634;2023-03-23T03:07:35;20.90;1.00
9943;DHT22;5010;45.080;7.634;2023-03-23T03:10:08;20.90;1.00
9943;DHT22;5010;45.080;7.634;2023-03-23T03:12:45;20.90;1.00
9943;DHT22;5010;45.080;7.634;2023-03-23T03:15:21;20.90;1.00
9943;DHT22;5010;45.080;7.634;2023-03-23T03:17:54;20.90;1.00
9943;DHT22;5010;45.080;7.634;2023-03-23T03:20:25;20.90;1.00
9943;DHT22;5010;45.080;7.634;2023-03-23T03:22:54;20.90;1.00
9943;DHT22;5010;45.080;7.634;2023-03-23T03:25:23;20.90;1.00
9943;DHT22;5010;45.080;7.634;2023-03-23T03:27:50;20.90;1.00
9943;DHT22;5010;45.080;7.634;2023-03-23T03:30:22;20.90;1.00
9943;DHT22;5010;45.080;7.634;2023-03-23T03:32:52;20.90;1.00
9943;DHT22;5010;45.080;7.634;2023-03-23T03:35:20;20.90;1.00
9943;DHT22;5010;45.080;7.634;2023-03-23T03:37:50;20.90;1.00
9943;DHT22;5010;45.080;7.634;2023-03-23T03:40:20;20.80;1.00
9943;DHT22;5010;45.080;7.634;2023-03-23T03:42:47;20.90;1.00
9943;DHT22;5010;45.080;7.634;2023-03-23T03:45:17;20.90;1.00
9943;DHT22;5010;45.080;7.634;2023-03-23T03:47:44;20.90;1.00
9943;DHT22;5010;45.080;7.634;2023-03-23T03:50:11;20.90;1.00
9943;DHT22;5010;45.080;7.634;2023-03-23T03:52:38;20.90;1.00
9943;DHT22;5010;45.080;7.634;2023-03-23T03:55:08;20.80;1.00
9943;DHT22;5010;45.080;7.634;2023-03-23T03:57:36;20.80;1.00
9943;DHT22;5010;45.080;7.634;2023-03-23T04:00:04;20.80;1.00
9943;DHT22;5010;45.080;7.634;2023-03-23T04:02:40;20.90;1.00
9943;DHT22;5010;45.080;7.634;2023-03-23T04:05:07;20.80;1.00
9943;DHT22;5010;45.080;7.634;2023-03-23T04:07:35;20.80;1.00
9943;DHT22;5010;45.080;7.634;2023-03-23T04:10:07;20.80;1.00
9943;DHT22;5010;45.080;7.634;2023-03-23T04:12:34;20.80;1.00
9943;DHT22;5010;45.080;7.634;2023-03-23T04:15:02;20.80;1.00
9943;DHT22;5010;45.080;7.634;2023-03-23T04:17:29;20.80;1.00
9943;DHT22;5010;45.080;7.634;2023-03-23T04:19:56;20.80;1.00
9943;DHT22;5010;45.080;7.634;2023-03-23T04:22:25;20.80;1.00
9943;DHT22;5010;45.080;7.634;2023-03-23T04:24:56;20.80;1.00
9943;DHT22;5010;45.080;7.634;2023-03-23T04:27:27;20.80;1.00
9943;DHT22;5010;45.080;7.634;2023-03-23T04:29:55;20.80;1.00
9943;DHT22;5010;45.080;7.634;2023-03-23T04:32:23;20.80;1.00
9943;DHT22;5010;45.080;7.634;2023-03-23T04:34:50;20.80;1.00
9943;DHT22;5010;45.080;7.634;2023-03-23T04:37:17;20.80;1.00
9943;DHT22;5010;45.080;7.634;2023-03-23T04:39:44;20.80;1.00
9943;DHT22;5010;45.080;7.634;2023-03-23T04:42:11;20.80;1.00
9943;DHT22;5010;45.080;7.634;2023-03-23T04:44:40;20.80;1.00
9943;DHT22;5010;45.080;7.634;2023-03-23T04:47:08;20.80;1.00
9943;DHT22;5010;45.080;7.634;2023-03-23T04:49:35;20.80;1.00
9943;DHT22;5010;45.080;7.634;2023-03-23T04:52:03;20.80;1.00
9943;DHT22;5010;45.080;7.634;2023-03-23T04:54:29;20.80;1.00
9943;DHT22;5010;45.080;7.634;2023-03-23T04:56:56;20.80;1.00
9943;DHT22;5010;45.080;7.634;2023-03-23T04:59:24;20.80;1.00
9943;DHT22;5010;45.080;7.634;2023-03-23T05:01:54;20.80;1.00
9943;DHT22;5010;45.080;7.634;2023-03-23T05:04:21;20.80;1.00
9943;DHT22;5010;45.080;7.634;2023-03-23T05:06:50;20.80;1.00
9943;DHT22;5010;45.080;7.634;2023-03-23T05:09:18;20.80;1.00
9943;DHT22;5010;45.080;7.634;2023-03-23T05:11:45;20.80;1.00
9943;DHT22;5010;45.080;7.634;2023-03-23T05:14:11;20.80;1.00
9943;DHT22;5010;45.080;7.634;2023-03-23T05:16:38;20.80;1.00
9943;DHT22;5010;45.080;7.634;2023-03-23T05:19:07;20.80;1.00
9943;DHT22;5010;45.080;7.634;2023-03-23T05:21:33;20.80;1.00
9943;DHT22;5010;45.080;7.634;2023-03-23T05:24:01;20.80;1.00
9943;DHT22;5010;45.080;7.634;2023-03-23T05:26:27;20.80;1.00
9943;DHT22;5010;45.080;7.634;2023-03-23T05:28:55;20.80;1.00
9943;DHT22;5010;45.080;7.634;2023-03-23T05:31:22;20.80;1.00
9943;DHT22;5010;45.080;7.634;2023-03-23T05:33:49;20.80;1.00
9943;DHT22;5010;45.080;7.634;2023-03-23T05:36:17;20.80;1.00
9943;DHT22;5010;45.080;7.634;2023-03-23T05:38:45;20.80;1.00
9943;DHT22;5010;45.080;7.634;2023-03-23T05:41:13;20.80;1.00
9943;DHT22;5010;45.080;7.634;2023-03-23T05:43:40;20.80;1.00
9943;DHT22;5010;45.080;7.634;2023-03-23T05:46:07;20.80;1.00
9943;DHT22;5010;45.080;7.634;2023-03-23T05:48:34;20.80;1.00
9943;DHT22;5010;45.080;7.634;2023-03-23T05:51:02;20.80;1.00
9943;DHT22;5010;45.080;7.634;2023-03-23T05:53:30;20.80;1.00
9943;DHT22;5010;45.080;7.634;2023-03-23T05:56:00;20.80;1.00
9943;DHT22;5010;45.080;7.634;2023-03-23T05:58:29;20.80;1.00
9943;DHT22;5010;45.080;7.634;2023-03-23T06:00:56;20.80;1.00
9943;DHT22;5010;45.080;7.634;2023-03-23T06:03:22;20.80;1.00
9943;DHT22;5010;45.080;7.634;2023-03-23T06:05:49;20.80;1.00
9943;DHT22;5010;45.080;7.634;2023-03-23T06:08:17;20.80;1.00
9943;DHT22;5010;45.080;7.634;2023-03-23T06:10:45;20.80;1.00
9943;DHT22;5010;45.080;7.634;2023-03-23T06:13:13;20.80;1.00
9943;DHT22;5010;45.080;7.634;2023-03-23T06:15:40;20.80;1.00
9943;DHT22;5010;45.080;7.634;2023-03-23T06:18:07;20.80;1.00
9943;DHT22;5010;45.080;7.634;2023-03-23T06:20:34;20.80;1.00
9943;DHT22;5010;45.080;7.634;2023-03-23T06:23:01;20.80;1.00
9943;DHT22;5010;45.080;7.634;2023-03-23T06:25:29;20.80;1.00
9943;DHT22;5010;45.080;7.634;2023-03-23T06:27:57;20.80;1.00
9943;DHT22;5010;45.080;7.634;2023-03-23T06:30:25;20.80;1.00
9943;DHT22;5010;45.080;7.634;2023-03-23T06:32:52;20.70;1.00
9943;DHT22;5010;45.080;7.634;2023-03-23T06:35:19;20.80;1.00
9943;DHT22;5010;45.080;7.634;2023-03-23T06:37:46;20.80;1.00
9943;DHT22;5010;45.080;7.634;2023-03-23T06:40:13;20.80;1.00
9943;DHT22;5010;45.080;7.634;2023-03-23T06:42:43;20.80;1.00
9943;DHT22;5010;45.080;7.634;2023-03-23T06:45:12;20.80;1.00
9943;DHT22;5010;45.080;7.634;2023-03-23T06:47:39;20.80;1.00
9943;DHT22;5010;45.080;7.634;2023-03-23T06:50:07;20.80;1.00
9943;DHT22;5010;45.080;7.634;2023-03-23T06:52:34;20.70;1.00
9943;DHT22;5010;45.080;7.634;2023-03-23T06:55:00;20.80;1.00
9943;DHT22;5010;45.080;7.634;2023-03-23T06:57:27;20.70;1.00
9943;DHT22;5010;45.080;7.634;2023-03-23T06:59:54;20.80;1.00
9943;DHT22;5010;45.080;7.634;2023-03-23T07:02:22;20.70;1.00
9943;DHT22;5010;45.080;7.634;2023-03-23T07:04:51;20.70;1.00
9943;DHT22;5010;45.080;7.634;2023-03-23T07:07:19;20.80;1.00
9943;DHT22;5010;45.080;7.634;2023-03-23T07:09:46;20.80;1.00
9943;DHT22;5010;45.080;7.634;2023-03-23T07:12:13;20.80;1.00
9943;DHT22;5010;45.080;7.634;2023-03-23T07:14:41;20.80;1.00
9943;DHT22;5010;45.080;7.634;2023-03-23T07:17:07;20.80;1.00
9943;DHT22;5010;45.080;7.634;2023-03-23T07:19:36;20.80;1.00
9943;DHT22;5010;45.080;7.634;2023-03-23T07:22:05;20.80;1.00
9943;DHT22;5010;45.080;7.634;2023-03-23T07:24:32;20.80;1.00
9943;DHT22;5010;45.080;7.634;2023-03-23T07:26:59;20.80;1.00
9943;DHT22;5010;45.080;7.634;2023-03-23T07:29:27;20.80;1.00
9943;DHT22;5010;45.080;7.634;2023-03-23T07:31:54;20.80;1.00
9943;DHT22;5010;45.080;7.634;2023-03-23T07:34:21;20.80;1.00
9943;DHT22;5010;45.080;7.634;2023-03-23T07:36:49;20.80;1.00
9943;DHT22;5010;45.080;7.634;2023-03-23T07:39:16;20.70;1.00
9943;DHT22;5010;45.080;7.634;2023-03-23T07:41:43;20.80;1.00
9943;DHT22;5010;45.080;7.634;2023-03-23T07:44:09;20.70;1.00
9943;DHT22;5010;45.080;7.634;2023-03-23T07:46:36;20.80;1.00
9943;DHT22;5010;45.080;7.634;2023-03-23T07:49:04;20.80;1.00
9943;DHT22;5010;45.080;7.634;2023-03-23T07:51:31;20.80;1.00
9943;DHT22;5010;45.080;7.634;2023-03-23T07:54:00;20.80;1.00
9943;DHT22;5010;45.080;7.634;2023-03-23T07:56:28;20.80;1.00
9943;DHT22;5010;45.080;7.634;2023-03-23T07:58:55;20.80;1.00
9943;DHT22;5010;45.080;7.634;2023-03-23T08:01:22;20.80;1.00
9943;DHT22;5010;45.080;7.634;2023-03-23T08:03:49;20.80;1.00
9943;DHT22;5010;45.080;7.634;2023-03-23T08:06:16;20.80;1.00
9943;DHT22;5010;45.080;7.634;2023-03-23T08:08:43;20.80;1.00
9943;DHT22;5010;45.080;7.634;2023-03-23T08:11:12;20.80;1.00
9943;DHT22;5010;45.080;7.634;2023-03-23T08:13:40;20.80;1.00
9943;DHT22;5010;45.080;7.634;2023-03-23T08:16:08;20.80;1.00
9943;DHT22;5010;45.080;7.634;2023-03-23T08:18:35;20.80;1.00
9943;DHT22;5010;45.080;7.634;2023-03-23T08:21:02;20.80;1.00
9943;DHT22;5010;45.080;7.634;2023-03-23T08:23:30;20.80;1.00
9943;DHT22;5010;45.080;7.634;2023-03-23T08:25:58;20.80;1.00
9943;DHT22;5010;45.080;7.634;2023-03-23T08:28:26;20.80;1.00
9943;DHT22;5010;45.080;7.634;2023-03-23T08:30:53;20.80;1.00
9943;DHT22;5010;45.080;7.634;2023-03-23T08:33:20;20.80;1.00
9943;DHT22;5010;45.080;7.634;2023-03-23T08:35:55;20.80;1.00
9943;DHT22;5010;45.080;7.634;2023-03-23T08:38:22;20.90;1.00
9943;DHT22;5010;45.080;7.634;2023-03-23T08:40:49;20.90;1.00
9943;DHT22;5010;45.080;7.634;2023-03-23T08:43:17;20.90;1.00
9943;DHT22;5010;45.080;7.634;2023-03-23T08:45:45;20.90;1.00
9943;DHT22;5010;45.080;7.634;2023-03-23T08:48:13;20.90;1.00
9943;DHT22;5010;45.080;7.634;2023-03-23T08:50:41;20.90;1.00
9943;DHT22;5010;45.080;7.634;2023-03-23T08:53:07;20.90;1.00
9943;DHT22;5010;45.080;7.634;2023-03-23T08:55:34;20.90;1.00
9943;DHT22;5010;45.080;7.634;2023-03-23T08:58:01;20.90;1.00
9943;DHT22;5010;45.080;7.634;2023-03-23T09:00:29;21.00;1.00
9943;DHT22;5010;45.080;7.634;2023-03-23T09:02:57;21.00;1.00
9943;DHT22;5010;45.080;7.634;2023-03-23T09:05:26;21.00;1.00
9943;DHT22;5010;45.080;7.634;2023-03-23T09:07:55;20.90;1.00
9943;DHT22;5010;45.080;7.634;2023-03-23T09:10:25;20.90;1.00
9943;DHT22;5010;45.080;7.634;2023-03-23T09:12:53;20.90;1.00
9943;DHT22;5010;45.080;7.634;2023-03-23T09:15:20;20.90;1.00
9943;DHT22;5010;45.080;7.634;2023-03-23T09:17:49;20.80;1.00
9943;DHT22;5010;45.080;7.634;2023-03-23T09:20:19;20.80;1.00
9943;DHT22;5010;45.080;7.634;2023-03-23T09:22:48;20.80;1.00
9943;DHT22;5010;45.080;7.634;2023-03-23T09:25:17;20.90;1.00
9943;DHT22;5010;45.080;7.634;2023-03-23T09:27:48;20.90;1.00
9943;DHT22;5010;45.080;7.634;2023-03-23T09:30:18;20.90;1.00
9943;DHT22;5010;45.080;7.634;2023-03-23T09:32:46;20.90;1.00
9943;DHT22;5010;45.080;7.634;2023-03-23T09:35:14;20.90;1.00
9943;DHT22;5010;45.080;7.634;2023-03-23T09:37:44;20.90;1.00
9943;DHT22;5010;45.080;7.634;2023-03-23T09:40:14;20.90;1.00
9943;DHT22;5010;45.080;7.634;2023-03-23T09:43:08;20.90;1.00
9943;DHT22;5010;45.080;7.634;2023-03-23T09:45:43;20.90;1.00
9943;DHT22;5010;45.080;7.634;2023-03-23T09:48:24;20.90;1.00
9943;DHT22;5010;45.080;7.634;2023-03-23T09:50:58;20.90;1.00
9943;DHT22;5010;45.080;7.634;2023-03-23T09:53:31;21.00;1.00
9943;DHT22;5010;45.080;7.634;2023-03-23T09:56:01;21.00;1.00
9943;DHT22;5010;45.080;7.634;2023-03-23T09:58:33;21.00;1.00
9943;DHT22;5010;45.080;7.634;2023-03-23T10:01:04;21.00;1.00
9943;DHT22;5010;45.080;7.634;2023-03-23T10:03:38;21.00;1.00
9943;DHT22;5010;45.080;7.634;2023-03-23T10:06:08;21.00;1.00
9943;DHT22;5010;45.080;7.634;2023-03-23T10:08:41;21.00;1.00
9943;DHT22;5010;45.080;7.634;2023-03-23T10:11:14;21.00;1.00
9943;DHT22;5010;45.080;7.634;2023-03-23T10:13:54;21.10;1.00
9943;DHT22;5010;45.080;7.634;2023-03-23T10:16:25;21.10;1.00
9943;DHT22;5010;45.080;7.634;2023-03-23T10:18:58;21.10;1.00
9943;DHT22;5010;45.080;7.634;2023-03-23T10:21:27;21.10;1.00
9943;DHT22;5010;45.080;7.634;2023-03-23T10:23:59;21.10;1.00
9943;DHT22;5010;45.080;7.634;2023-03-23T10:26:35;21.10;1.00
9943;DHT22;5010;45.080;7.634;2023-03-23T10:29:11;21.10;1.00
9943;DHT22;5010;45.080;7.634;2023-03-23T10:31:41;21.10;1.00
9943;DHT22;5010;45.080;7.634;2023-03-23T10:34:13;21.10;1.00
9943;DHT22;5010;45.080;7.634;2023-03-23T10:36:52;21.10;1.00
9943;DHT22;5010;45.080;7.634;2023-03-23T10:39:26;21.20;1.00
9943;DHT22;5010;45.080;7.634;2023-03-23T10:41:54;21.10;1.00
9943;DHT22;5010;45.080;7.634;2023-03-23T10:44:23;21.20;1.00
9943;DHT22;5010;45.080;7.634;2023-03-23T10:46:57;21.20;1.00
9943;DHT22;5010;45.080;7.634;2023-03-23T10:49:28;21.20;1.00
9943;DHT22;5010;45.080;7.634;2023-03-23T10:52:00;21.20;1.00
9943;DHT22;5010;45.080;7.634;2023-03-23T10:54:36;21.20;1.00
9943;DHT22;5010;45.080;7.634;2023-03-23T10:57:13;21.30;1.00
9943;DHT22;5010;45.080;7.634;2023-03-23T10:59:40;21.30;1.00
9943;DHT22;5010;45.080;7.634;2023-03-23T11:02:14;21.30;1.00
9943;DHT22;5010;45.080;7.634;2023-03-23T11:04:45;21.30;1.00
9943;DHT22;5010;45.080;7.634;2023-03-23T11:07:18;21.30;1.00
9943;DHT22;5010;45.080;7.634;2023-03-23T11:10:05;21.30;1.00
9943;DHT22;5010;45.080;7.634;2023-03-23T11:12:34;21.30;1.00
9943;DHT22;5010;45.080;7.634;2023-03-23T11:15:21;21.30;1.00
9943;DHT22;5010;45.080;7.634;2023-03-23T11:17:55;21.30;1.00
9943;DHT22;5010;45.080;7.634;2023-03-23T11:20:22;21.30;1.00
9943;DHT22;5010;45.080;7.634;2023-03-23T11:22:49;21.30;1.00
9943;DHT22;5010;45.080;7.634;2023-03-23T11:25:18;21.40;1.00
9943;DHT22;5010;45.080;7.634;2023-03-23T11:27:45;21.40;1.00
9943;DHT22;5010;45.080;7.634;2023-03-23T11:30:22;21.40;1.00
9943;DHT22;5010;45.080;7.634;2023-03-23T11:32:50;21.40;1.00
9943;DHT22;5010;45.080;7.634;2023-03-23T11:35:20;21.40;1.00
9943;DHT22;5010;45.080;7.634;2023-03-23T11:37:50;21.40;1.00
9943;DHT22;5010;45.080;7.634;2023-03-23T11:40:21;21.40;1.00
9943;DHT22;5010;45.080;7.634;2023-03-23T11:42:57;21.40;1.00
9943;DHT22;5010;45.080;7.634;2023-03-23T11:45:31;21.40;1.00
9943;DHT22;5010;45.080;7.634;2023-03-23T11:48:13;21.40;1.00
9943;DHT22;5010;45.080;7.634;2023-03-23T11:50:50;21.40;1.00
9943;DHT22;5010;45.080;7.634;2023-03-23T11:53:25;21.50;1.00
9943;DHT22;5010;45.080;7.634;2023-03-23T11:56:05;21.40;1.00
9943;DHT22;5010;45.080;7.634;2023-03-23T11:58:33;21.50;1.00
9943;DHT22;5010;45.080;7.634;2023-03-23T12:01:07;21.50;1.00
9943;DHT22;5010;45.080;7.634;2023-03-23T12:04:02;21.50;1.00
9943;DHT22;5010;45.080;7.634;2023-03-23T12:06:36;21.50;1.00
9943;DHT22;5010;45.080;7.634;2023-03-23T12:09:17;21.50;1.00
9943;DHT22;5010;45.080;7.634;2023-03-23T12:11:59;21.50;1.00
9943;DHT22;5010;45.080;7.634;2023-03-23T12:14:36;21.50;1.00
9943;DHT22;5010;45.080;7.634;2023-03-23T12:17:17;21.50;1.00
9943;DHT22;5010;45.080;7.634;2023-03-23T12:19:57;21.50;1.00
9943;DHT22;5010;45.080;7.634;2023-03-23T12:22:41;21.50;1.00
9943;DHT22;5010;45.080;7.634;2023-03-23T12:25:32;21.50;1.00
9943;DHT22;5010;45.080;7.634;2023-03-23T12:28:06;21.50;1.00
9943;DHT22;5010;45.080;7.634;2023-03-23T12:30:41;21.50;1.00
9943;DHT22;5010;45.080;7.634;2023-03-23T12:33:17;21.60;1.00
9943;DHT22;5010;45.080;7.634;2023-03-23T12:35:53;21.60;1.00
9943;DHT22;5010;45.080;7.634;2023-03-23T12:38:38;21.60;1.00
9943;DHT22;5010;45.080;7.634;2023-03-23T12:41:13;21.60;1.00
9943;DHT22;5010;45.080;7.634;2023-03-23T12:43:51;21.50;1.00
9943;DHT22;5010;45.080;7.634;2023-03-23T12:49:12;21.60;1.00
9943;DHT22;5010;45.080;7.634;2023-03-23T12:51:47;21.60;1.00
9943;DHT22;5010;45.080;7.634;2023-03-23T12:54:21;21.50;1.00
9943;DHT22;5010;45.080;7.634;2023-03-23T12:56:52;21.60;1.00
9943;DHT22;5010;45.080;7.634;2023-03-23T12:59:26;21.50;1.00
9943;DHT22;5010;45.080;7.634;2023-03-23T13:02:01;21.50;1.00
9943;DHT22;5010;45.080;7.634;2023-03-23T13:04:32;21.50;1.00
9943;DHT22;5010;45.080;7.634;2023-03-23T13:07:06;21.50;1.00
9943;DHT22;5010;45.080;7.634;2023-03-23T13:09:44;21.50;1.00
9943;DHT22;5010;45.080;7.634;2023-03-23T13:12:14;21.50;1.00
9943;DHT22;5010;45.080;7.634;2023-03-23T13:14:50;21.50;1.00
9943;DHT22;5010;45.080;7.634;2023-03-23T13:17:26;21.50;1.00
9943;DHT22;5010;45.080;7.634;2023-03-23T13:20:04;21.50;1.00
9943;DHT22;5010;45.080;7.634;2023-03-23T13:22:42;21.50;1.00
9943;DHT22;5010;45.080;7.634;2023-03-23T13:25:18;21.50;1.00
9943;DHT22;5010;45.080;7.634;2023-03-23T13:27:56;21.50;1.00
9943;DHT22;5010;45.080;7.634;2023-03-23T13:30:26;21.50;1.00
9943;DHT22;5010;45.080;7.634;2023-03-23T13:33:02;21.60;1.00
9943;DHT22;5010;45.080;7.634;2023-03-23T13:35:34;21.50;1.00
9943;DHT22;5010;45.080;7.634;2023-03-23T13:38:12;21.60;1.00
9943;DHT22;5010;45.080;7.634;2023-03-23T13:40:43;21.50;1.00
9943;DHT22;5010;45.080;7.634;2023-03-23T13:43:10;21.60;1.00
9943;DHT22;5010;45.080;7.634;2023-03-23T13:45:45;21.60;1.00
9943;DHT22;5010;45.080;7.634;2023-03-23T13:48:20;21.60;1.00
9943;DHT22;5010;45.080;7.634;2023-03-23T13:50:52;21.60;1.00
9943;DHT22;5010;45.080;7.634;2023-03-23T13:53:26;21.60;1.00
9943;DHT22;5010;45.080;7.634;2023-03-23T13:56:07;21.60;1.00
9943;DHT22;5010;45.080;7.634;2023-03-23T13:58:45;21.60;1.00
9943;DHT22;5010;45.080;7.634;2023-03-23T14:01:17;21.60;1.00
9943;DHT22;5010;45.080;7.634;2023-03-23T14:03:47;21.60;1.00
9943;DHT22;5010;45.080;7.634;2023-03-23T14:06:18;21.60;1.00
9943;DHT22;5010;45.080;7.634;2023-03-23T14:08:48;21.60;1.00
9943;DHT22;5010;45.080;7.634;2023-03-23T14:11:20;21.60;1.00
9943;DHT22;5010;45.080;7.634;2023-03-23T14:14:00;21.60;1.00
9943;DHT22;5010;45.080;7.634;2023-03-23T14:16:36;21.60;1.00
9943;DHT22;5010;45.080;7.634;2023-03-23T14:19:14;21.60;1.00
9943;DHT22;5010;45.080;7.634;2023-03-23T14:21:48;21.60;1.00
9943;DHT22;5010;45.080;7.634;2023-03-23T14:24:19;21.60;1.00
9943;DHT22;5010;45.080;7.634;2023-03-23T14:26:48;21.60;1.00
9943;DHT22;5010;45.080;7.634;2023-03-23T14:29:18;21.60;1.00
9943;DHT22;5010;45.080;7.634;2023-03-23T14:31:52;21.60;1.00
9943;DHT22;5010;45.080;7.634;2023-03-23T14:34:21;21.60;1.00
9943;DHT22;5010;45.080;7.634;2023-03-23T14:36:49;21.60;1.00
9943;DHT22;5010;45.080;7.634;2023-03-23T14:39:21;21.60;1.00
9943;DHT22;5010;45.080;7.634;2023-03-23T14:41:49;21.60;1.00
9943;DHT22;5010;45.080;7.634;2023-03-23T14:44:22;21.60;1.00
9943;DHT22;5010;45.080;7.634;2023-03-23T14:46:51;21.60;1.00
9943;DHT22;5010;45.080;7.634;2023-03-23T14:49:30;21.60;1.00
9943;DHT22;5010;45.080;7.634;2023-03-23T14:52:03;21.60;1.00
9943;DHT22;5010;45.080;7.634;2023-03-23T14:54:31;21.60;1.00
9943;DHT22;5010;45.080;7.634;2023-03-23T14:57:05;21.60;1.00
9943;DHT22;5010;45.080;7.634;2023-03-23T14:59:40;21.60;1.00
9943;DHT22;5010;45.080;7.634;2023-03-23T15:02:11;21.60;1.00
9943;DHT22;5010;45.080;7.634;2023-03-23T15:04:39;21.60;1.00
9943;DHT22;5010;45.080;7.634;2023-03-23T15:07:08;21.60;1.00
9943;DHT22;5010;45.080;7.634;2023-03-23T15:09:38;21.60;1.00
9943;DHT22;5010;45.080;7.634;2023-03-23T15:12:06;21.60;1.00
9943;DHT22;5010;45.080;7.634;2023-03-23T15:14:42;21.60;1.00
9943;DHT22;5010;45.080;7.634;2023-03-23T15:17:18;21.60;1.00
9943;DHT22;5010;45.080;7.634;2023-03-23T15:19:46;21.60;1.00
9943;DHT22;5010;45.080;7.634;2023-03-23T15:22:18;21.60;1.00
9943;DHT22;5010;45.080;7.634;2023-03-23T15:24:45;21.60;1.00
9943;DHT22;5010;45.080;7.634;2023-03-23T15:27:16;21.60;1.00
9943;DHT22;5010;45.080;7.634;2023-03-23T15:29:51;21.60;1.00
9943;DHT22;5010;45.080;7.634;2023-03-23T15:32:25;21.50;1.00
9943;DHT22;5010;45.080;7.634;2023-03-23T15:34:53;21.50;1.00
9943;DHT22;5010;45.080;7.634;2023-03-23T15:37:24;21.50;1.00
9943;DHT22;5010;45.080;7.634;2023-03-23T15:39:52;21.50;1.00
9943;DHT22;5010;45.080;7.634;2023-03-23T15:42:25;21.50;1.00
9943;DHT22;5010;45.080;7.634;2023-03-23T15:45:16;21.50;1.00
9943;DHT22;5010;45.080;7.634;2023-03-23T15:47:48;21.50;1.00
9943;DHT22;5010;45.080;7.634;2023-03-23T15:50:17;21.50;1.00
9943;DHT22;5010;45.080;7.634;2023-03-23T15:52:45;21.50;1.00
9943;DHT22;5010;45.080;7.634;2023-03-23T15:55:20;21.50;1.00
9943;DHT22;5010;45.080;7.634;2023-03-23T15:57:48;21.50;1.00
9943;DHT22;5010;45.080;7.634;2023-03-23T16:00:16;21.50;1.00
9943;DHT22;5010;45.080;7.634;2023-03-23T16:02:44;21.50;1.00
9943;DHT22;5010;45.080;7.634;2023-03-23T16:05:13;21.50;1.00
9943;DHT22;5010;45.080;7.634;2023-03-23T16:07:40;21.50;1.00
9943;DHT22;5010;45.080;7.634;2023-03-23T16:10:14;21.50;1.00
9943;DHT22;5010;45.080;7.634;2023-03-23T16:12:41;21.50;1.00
9943;DHT22;5010;45.080;7.634;2023-03-23T16:15:09;21.50;1.00
9943;DHT22;5010;45.080;7.634;2023-03-23T16:17:35;21.50;1.00
9943;DHT22;5010;45.080;7.634;2023-03-23T16:20:10;21.50;1.00
9943;DHT22;5010;45.080;7.634;2023-03-23T16:22:39;21.50;1.00
9943;DHT22;5010;45.080;7.634;2023-03-23T16:25:07;21.50;1.00
9943;DHT22;5010;45.080;7.634;2023-03-23T16:27:35;21.50;1.00
9943;DHT22;5010;45.080;7.634;2023-03-23T16:30:07;21.50;1.00
9943;DHT22;5010;45.080;7.634;2023-03-23T16:32:35;21.50;1.00
9943;DHT22;5010;45.080;7.634;2023-03-23T16:35:02;21.50;1.00
9943;DHT22;5010;45.080;7.634;2023-03-23T16:37:29;21.50;1.00
9943;DHT22;5010;45.080;7.634;2023-03-23T16:39:59;21.50;1.00
9943;DHT22;5010;45.080;7.634;2023-03-23T16:42:26;21.40;1.00
9943;DHT22;5010;45.080;7.634;2023-03-23T16:44:53;21.50;1.00
9943;DHT22;5010;45.080;7.634;2023-03-23T16:47:20;21.40;1.00